createdAt,value
2019-03-27T00:00:27.510Z,5.40
2019-03-27T00:02:47.683Z,4.13
2019-03-27T00:05:08.345Z,5.50
2019-03-27T00:07:29.004Z,5.87
2019-03-27T00:09:49.503Z,5.15
2019-03-27T00:12:09.999Z,5.05
2019-03-27T00:14:30.533Z,5.08
2019-03-27T00:16:51.123Z,5.25
2019-03-27T00:19:11.778Z,5.30
2019-03-27T00:21:32.355Z,5.33
2019-03-27T00:23:53.027Z,5.60
2019-03-27T00:26:13.481Z,5.80
2019-03-27T00:28:34.076Z,5.35
2019-03-27T00:30:55.800Z,5.15
2019-03-27T00:33:16.549Z,5.25
2019-03-27T00:35:37.129Z,5.40
2019-03-27T00:37:58.724Z,6.25
2019-03-27T00:40:20.499Z,5.47
2019-03-27T00:42:41.057Z,4.95
2019-03-27T00:45:01.905Z,5.25
2019-03-27T00:47:22.444Z,5.03
2019-03-27T00:49:42.896Z,5.45
2019-03-27T00:52:03.503Z,5.85
2019-03-27T00:54:24.261Z,4.53
2019-03-27T00:56:44.807Z,4.87
2019-03-27T00:59:05.330Z,4.65
2019-03-27T01:01:26.818Z,4.80
2019-03-27T01:03:47.370Z,5.20
2019-03-27T01:06:08.144Z,5.22
2019-03-27T01:08:28.847Z,4.97
2019-03-27T01:10:52.585Z,5.00
2019-03-27T01:13:13.196Z,4.75
2019-03-27T01:15:40.346Z,5.00
2019-03-27T01:18:01.311Z,4.62
2019-03-27T01:20:21.870Z,4.90
2019-03-27T01:22:42.685Z,4.75
2019-03-27T01:25:03.403Z,4.67
2019-03-27T01:27:24.050Z,5.10
2019-03-27T01:29:44.710Z,4.90
2019-03-27T01:32:06.780Z,5.30
2019-03-27T01:34:27.353Z,4.42
2019-03-27T01:36:47.883Z,5.45
2019-03-27T01:39:08.545Z,4.90
2019-03-27T01:41:29.318Z,5.33
2019-03-27T01:43:49.839Z,5.30
2019-03-27T01:46:11.479Z,4.65
2019-03-27T01:48:33.153Z,4.87
2019-03-27T01:50:53.657Z,5.33
2019-03-27T01:53:14.144Z,5.28
2019-03-27T01:55:34.807Z,4.95
2019-03-27T01:57:55.293Z,5.03
2019-03-27T02:00:16.053Z,4.83
2019-03-27T02:02:36.695Z,4.85
2019-03-27T02:04:57.210Z,4.78
2019-03-27T02:07:17.650Z,5.20
2019-03-27T02:09:38.368Z,5.00
2019-03-27T02:11:59.092Z,4.67
2019-03-27T02:14:19.869Z,4.62
2019-03-27T02:16:40.400Z,5.00
2019-03-27T02:19:01.038Z,4.72
2019-03-27T02:21:24.306Z,5.20
2019-03-27T02:23:49.922Z,5.42
2019-03-27T02:26:11.761Z,4.90
2019-03-27T02:28:32.390Z,4.97
2019-03-27T02:30:53.019Z,5.30
2019-03-27T02:33:13.614Z,4.90
2019-03-27T02:35:34.108Z,4.78
2019-03-27T02:37:54.631Z,5.42
2019-03-27T02:40:15.265Z,5.25
2019-03-27T02:42:35.987Z,4.92
2019-03-27T02:44:56.556Z,4.97
2019-03-27T02:47:17.154Z,4.90
2019-03-27T02:49:37.848Z,5.15
2019-03-27T02:51:58.390Z,5.40
2019-03-27T02:54:18.935Z,4.83
2019-03-27T02:56:39.467Z,5.05
2019-03-27T02:59:00.096Z,4.90
2019-03-27T03:01:20.726Z,4.53
2019-03-27T03:03:41.287Z,4.85
2019-03-27T03:06:01.865Z,4.80
2019-03-27T03:08:23.682Z,4.90
2019-03-27T03:10:45.929Z,5.37
2019-03-27T03:13:05.812Z,4.13
2019-03-27T03:15:29.558Z,4.83
2019-03-27T03:17:50.511Z,4.60
2019-03-27T03:20:12.311Z,5.00
2019-03-27T03:22:32.818Z,4.58
2019-03-27T03:24:53.399Z,5.62
2019-03-27T03:27:14.017Z,5.30
2019-03-27T03:29:34.623Z,5.25
2019-03-27T03:31:56.121Z,4.97
2019-03-27T03:34:16.669Z,4.58
2019-03-27T03:36:37.153Z,4.97
2019-03-27T03:38:57.692Z,4.97
2019-03-27T03:41:18.388Z,4.83
2019-03-27T03:43:38.925Z,4.67
2019-03-27T03:45:59.484Z,4.83
2019-03-27T03:48:20.164Z,4.95
2019-03-27T03:50:42.568Z,4.78
2019-03-27T03:53:02.921Z,3.25
2019-03-27T03:55:26.075Z,4.58
2019-03-27T04:00:08.151Z,4.50
2019-03-27T04:02:31.882Z,4.37
2019-03-27T04:04:54.708Z,4.65
2019-03-27T04:07:14.957Z,4.83
2019-03-27T04:09:36.663Z,4.78
2019-03-27T04:11:57.195Z,4.97
2019-03-27T04:14:17.731Z,5.30
2019-03-27T04:16:38.235Z,4.60
2019-03-27T04:18:58.790Z,4.95
2019-03-27T04:21:19.315Z,5.12
2019-03-27T04:23:39.924Z,5.62
2019-03-27T04:26:09.565Z,5.17
2019-03-27T04:28:22.384Z,4.20
2019-03-27T04:30:44.109Z,4.80
2019-03-27T04:33:04.780Z,5.40
2019-03-27T04:35:25.291Z,5.37
2019-03-27T04:37:52.127Z,5.47
2019-03-27T04:40:15.643Z,5.67
2019-03-27T04:42:36.318Z,5.55
2019-03-27T04:44:56.846Z,4.90
2019-03-27T04:47:31.585Z,4.87
2019-03-27T04:49:39.349Z,5.42
2019-03-27T04:51:59.961Z,5.12
2019-03-27T04:54:20.467Z,5.22
2019-03-27T04:56:41.086Z,5.97
2019-03-27T04:59:01.896Z,5.33
2019-03-27T05:01:22.464Z,6.00
2019-03-27T05:03:43.254Z,5.90
2019-03-27T05:06:03.950Z,6.10
2019-03-27T05:08:24.841Z,5.83
2019-03-27T05:10:45.470Z,6.30
2019-03-27T05:13:05.919Z,5.95
2019-03-27T05:15:26.475Z,5.80
2019-03-27T05:17:47.023Z,6.28
2019-03-27T05:20:08.348Z,6.05
2019-03-27T05:22:29.062Z,6.45
2019-03-27T05:24:49.604Z,5.90
2019-03-27T05:27:10.108Z,6.37
2019-03-27T05:29:30.590Z,6.08
2019-03-27T05:31:51.133Z,6.45
2019-03-27T05:34:11.711Z,5.85
2019-03-27T05:36:32.218Z,6.00
2019-03-27T05:38:52.770Z,5.70
2019-03-27T05:41:13.318Z,6.08
2019-03-27T05:43:33.852Z,6.47
2019-03-27T05:45:54.489Z,5.90
2019-03-27T05:48:14.965Z,5.60
2019-03-27T05:50:35.515Z,5.53
2019-03-27T05:52:56.024Z,6.17
2019-03-27T05:55:16.648Z,6.15
2019-03-27T05:57:37.168Z,5.85
2019-03-27T05:59:57.957Z,6.05
2019-03-27T06:02:18.557Z,5.80
2019-03-27T06:04:39.050Z,5.70
2019-03-27T06:06:59.651Z,6.00
2019-03-27T06:09:20.204Z,6.05
2019-03-27T06:11:40.684Z,5.90
2019-03-27T06:14:01.210Z,5.55
2019-03-27T06:16:21.797Z,5.60
2019-03-27T06:18:42.332Z,6.00
2019-03-27T06:21:02.967Z,5.72
2019-03-27T06:23:23.539Z,6.58
2019-03-27T06:25:44.999Z,6.78
2019-03-27T06:28:05.755Z,6.78
2019-03-27T06:30:45.769Z,6.60
2019-03-27T06:33:06.392Z,6.30
2019-03-27T06:35:26.982Z,6.12
2019-03-27T06:37:47.524Z,6.00
2019-03-27T06:40:08.940Z,6.08
2019-03-27T06:42:29.460Z,8.65
2019-03-27T06:44:50.019Z,7.55
2019-03-27T06:47:11.475Z,7.10
2019-03-27T06:49:32.169Z,7.58
2019-03-27T06:51:52.853Z,7.33
2019-03-27T06:54:13.380Z,8.08
2019-03-27T06:56:34.086Z,7.75
2019-03-27T06:58:55.155Z,7.97
2019-03-27T07:01:15.946Z,7.00
2019-03-27T07:03:36.616Z,8.15
2019-03-27T07:05:57.189Z,7.33
2019-03-27T07:08:17.780Z,8.68
2019-03-27T07:10:38.470Z,7.12
2019-03-27T07:12:59.084Z,6.80
2019-03-27T07:15:19.835Z,7.80
2019-03-27T07:17:40.492Z,7.90
2019-03-27T07:20:01.205Z,7.55
2019-03-27T07:22:21.976Z,8.08
2019-03-27T07:24:42.701Z,8.28
2019-03-27T07:27:04.399Z,7.10
2019-03-27T07:29:24.934Z,6.95
2019-03-27T07:31:45.614Z,7.40
2019-03-27T07:34:06.173Z,7.12
2019-03-27T07:36:26.781Z,6.90
2019-03-27T07:38:47.342Z,7.60
2019-03-27T07:41:08.979Z,7.47
2019-03-27T07:43:29.473Z,7.55
2019-03-27T07:45:50.115Z,7.40
2019-03-27T07:48:10.796Z,7.70
2019-03-27T07:50:31.467Z,7.47
2019-03-27T07:52:51.989Z,6.95
2019-03-27T07:55:19.126Z,6.42
2019-03-27T07:57:34.825Z,5.08
2019-03-27T07:59:55.399Z,6.28
2019-03-27T08:02:16.022Z,6.33
2019-03-27T08:04:36.541Z,5.67
2019-03-27T08:06:57.180Z,6.92
2019-03-27T08:09:18.843Z,6.80
2019-03-27T08:11:39.572Z,6.53
2019-03-27T08:14:00.335Z,6.62
2019-03-27T08:16:20.956Z,5.90
2019-03-27T08:18:41.494Z,6.12
2019-03-27T08:21:02.001Z,6.42
2019-03-27T08:23:22.615Z,5.80
2019-03-27T08:25:43.254Z,5.95
2019-03-27T08:28:04.213Z,5.60
2019-03-27T08:30:25.103Z,6.20
2019-03-27T08:32:45.669Z,8.03
2019-03-27T08:35:07.812Z,6.95
2019-03-27T08:37:28.321Z,5.37
2019-03-27T08:39:48.991Z,6.50
2019-03-27T08:42:09.460Z,7.00
2019-03-27T08:44:30.138Z,6.08
2019-03-27T08:46:50.778Z,5.53
2019-03-27T08:49:21.701Z,4.60
2019-03-27T08:51:33.686Z,3.55
2019-03-27T08:53:54.360Z,3.75
2019-03-27T08:56:14.882Z,3.72
2019-03-27T08:58:35.394Z,3.58
2019-03-27T09:00:56.789Z,4.05
2019-03-27T09:03:18.143Z,4.25
2019-03-27T09:05:38.836Z,4.05
2019-03-27T09:07:59.333Z,4.12
2019-03-27T09:10:19.979Z,3.67
2019-03-27T09:12:40.217Z,3.70
2019-03-27T09:15:00.898Z,3.75
2019-03-27T09:17:21.251Z,3.75
2019-03-27T09:19:41.730Z,3.90
2019-03-27T09:22:02.352Z,3.95
2019-03-27T09:24:22.930Z,3.37
2019-03-27T09:26:43.553Z,3.62
2019-03-27T09:29:03.687Z,3.30
2019-03-27T09:31:23.868Z,3.73
2019-03-27T09:33:44.346Z,3.40
2019-03-27T09:36:05.219Z,3.10
2019-03-27T09:38:26.008Z,4.20
2019-03-27T09:40:46.630Z,3.17
2019-03-27T09:43:06.812Z,3.17
2019-03-27T09:45:26.717Z,3.62
2019-03-27T09:47:47.424Z,3.17
2019-03-27T09:50:07.871Z,3.20
2019-03-27T09:52:29.452Z,2.80
2019-03-27T09:54:50.165Z,2.95
2019-03-27T09:57:10.796Z,2.80
2019-03-27T09:59:31.376Z,2.70
2019-03-27T10:01:52.193Z,3.17
2019-03-27T10:04:12.654Z,2.70
2019-03-27T10:06:33.288Z,2.83
2019-03-27T10:08:53.899Z,2.70
2019-03-27T10:11:15.600Z,2.75
2019-03-27T10:13:36.422Z,2.98
2019-03-27T10:15:56.971Z,2.75
2019-03-27T10:18:17.435Z,2.90
2019-03-27T10:20:39.178Z,2.95
2019-03-27T10:22:59.815Z,3.15
2019-03-27T10:25:20.501Z,2.70
2019-03-27T10:27:42.315Z,2.37
2019-03-27T10:30:02.857Z,3.00
2019-03-27T10:32:23.493Z,2.85
2019-03-27T10:34:44.040Z,3.02
2019-03-27T10:37:05.646Z,2.72
2019-03-27T10:39:26.220Z,2.83
2019-03-27T10:41:46.898Z,2.40
2019-03-27T10:44:07.573Z,2.90
2019-03-27T10:46:28.233Z,2.58
2019-03-27T10:48:52.934Z,2.80
2019-03-27T10:51:11.165Z,2.50
2019-03-27T10:53:31.944Z,2.33
2019-03-27T10:55:53.526Z,2.62
2019-03-27T10:58:20.950Z,2.40
2019-03-27T11:00:36.610Z,1.75
2019-03-27T11:02:57.381Z,2.58
2019-03-27T11:05:17.956Z,3.00
2019-03-27T11:07:38.506Z,3.25
2019-03-27T11:09:59.082Z,2.60
2019-03-27T11:12:19.595Z,2.50
2019-03-27T11:14:40.829Z,2.52
2019-03-27T11:17:01.360Z,2.67
2019-03-27T11:19:21.993Z,2.92
2019-03-27T11:21:42.665Z,2.87
2019-03-27T11:24:03.100Z,3.12
2019-03-27T11:26:23.856Z,2.67
2019-03-27T11:28:44.319Z,2.67
2019-03-27T11:31:04.915Z,2.47
2019-03-27T11:33:28.800Z,3.00
2019-03-27T11:35:47.780Z,2.60
2019-03-27T11:38:08.543Z,2.45
2019-03-27T11:40:29.123Z,2.83
2019-03-27T11:42:49.631Z,2.10
2019-03-27T11:45:10.526Z,2.30
2019-03-27T11:47:31.102Z,2.25
2019-03-27T11:49:51.851Z,2.35
2019-03-27T11:52:12.402Z,2.20
2019-03-27T11:54:32.874Z,2.27
2019-03-27T11:56:53.457Z,1.80
2019-03-27T11:59:14.079Z,1.90
2019-03-27T12:01:42.035Z,2.08
2019-03-27T12:03:56.746Z,2.10
2019-03-27T12:06:17.344Z,2.08
2019-03-27T12:08:37.818Z,2.15
2019-03-27T12:10:58.488Z,1.80
2019-03-27T12:13:19.331Z,1.90
2019-03-27T12:15:41.506Z,2.02
2019-03-27T12:18:02.372Z,1.70
2019-03-27T12:20:22.903Z,1.87
2019-03-27T12:22:56.996Z,2.00
2019-03-27T12:25:06.608Z,2.27
2019-03-27T12:27:28.003Z,2.00
2019-03-27T12:29:48.449Z,2.00
2019-03-27T12:32:09.168Z,1.90
2019-03-27T12:34:29.676Z,2.20
2019-03-27T12:37:02.109Z,2.00
2019-03-27T12:39:22.789Z,1.70
2019-03-27T12:41:43.335Z,1.90
2019-03-27T12:44:04.108Z,2.27
2019-03-27T12:46:24.717Z,2.50
2019-03-27T12:48:45.329Z,2.45
2019-03-27T12:51:12.724Z,2.33
2019-03-27T12:53:28.287Z,1.60
2019-03-27T12:55:48.827Z,2.27
2019-03-27T12:58:21.704Z,2.22
2019-03-27T13:00:42.014Z,1.98
2019-03-27T13:03:02.750Z,2.15
2019-03-27T13:05:23.362Z,2.02
2019-03-27T13:07:50.050Z,2.25
2019-03-27T13:10:06.267Z,2.33
2019-03-27T13:12:32.829Z,2.45
2019-03-27T13:14:53.177Z,3.03
2019-03-27T13:17:13.770Z,2.60
2019-03-27T13:19:33.647Z,2.92
2019-03-27T13:21:54.192Z,2.92
2019-03-27T13:24:14.910Z,3.10
2019-03-27T13:26:35.503Z,3.22
2019-03-27T13:28:56.129Z,3.20
2019-03-27T13:31:16.827Z,3.08
2019-03-27T13:33:37.409Z,2.83
2019-03-27T13:35:58.153Z,2.67
2019-03-27T13:38:19.145Z,2.77
2019-03-27T13:40:39.692Z,3.30
2019-03-27T13:43:00.513Z,3.20
2019-03-27T13:45:21.196Z,3.22
2019-03-27T13:47:41.832Z,3.20
2019-03-27T13:50:02.471Z,3.10
2019-03-27T13:52:23.348Z,3.10
2019-03-27T13:54:56.579Z,2.90
2019-03-27T13:57:16.775Z,3.02
2019-03-27T13:59:37.392Z,3.33
2019-03-27T14:01:59.033Z,2.90
2019-03-27T14:04:19.877Z,3.00
2019-03-27T14:06:40.741Z,2.70
2019-03-27T14:09:01.184Z,3.33
2019-03-27T14:11:23.331Z,3.83
2019-03-27T14:13:43.909Z,3.10
2019-03-27T14:16:05.190Z,3.10
2019-03-27T14:18:25.770Z,3.47
2019-03-27T14:20:46.344Z,3.30
2019-03-27T14:23:06.935Z,4.00
2019-03-27T14:25:29.002Z,3.58
2019-03-27T14:27:49.588Z,3.60
2019-03-27T14:30:13.129Z,4.00
2019-03-27T14:32:34.275Z,3.80
2019-03-27T14:34:54.775Z,3.85
2019-03-27T14:37:15.635Z,3.95
2019-03-27T14:39:36.218Z,3.98
2019-03-27T14:41:56.748Z,3.98
2019-03-27T14:44:18.583Z,3.90
2019-03-27T14:46:39.081Z,3.37
2019-03-27T14:48:59.641Z,3.98
2019-03-27T14:51:20.428Z,3.50
2019-03-27T14:53:41.127Z,3.60
2019-03-27T14:56:01.730Z,3.62
2019-03-27T14:58:22.353Z,3.85
2019-03-27T15:00:42.870Z,3.87
2019-03-27T15:03:03.420Z,3.95
2019-03-27T15:05:24.067Z,3.98
2019-03-27T15:07:44.682Z,4.00
2019-03-27T15:10:07.952Z,4.15
2019-03-27T15:12:27.992Z,4.35
2019-03-27T15:14:48.568Z,4.03
2019-03-27T15:17:09.077Z,3.80
2019-03-27T15:19:29.807Z,3.90
2019-03-27T15:21:50.353Z,3.80
2019-03-27T15:24:10.996Z,3.50
2019-03-27T15:26:31.580Z,4.15
2019-03-27T15:28:52.353Z,3.90
2019-03-27T15:31:20.294Z,3.95
2019-03-27T15:33:35.299Z,3.60
2019-03-27T15:35:56.821Z,4.20
2019-03-27T15:38:18.533Z,3.95
2019-03-27T15:40:44.075Z,3.98
2019-03-27T15:43:04.640Z,3.92
2019-03-27T15:45:25.322Z,3.90
2019-03-27T15:47:45.853Z,4.40
2019-03-27T15:50:06.689Z,4.25
2019-03-27T15:52:36.188Z,4.12
2019-03-27T15:54:49.108Z,4.07
2019-03-27T15:57:09.768Z,3.92
2019-03-27T15:59:30.439Z,4.12
2019-03-27T16:01:51.026Z,3.92
2019-03-27T16:04:11.682Z,4.17
2019-03-27T16:06:32.272Z,4.05
2019-03-27T16:08:52.860Z,4.30
2019-03-27T16:11:13.789Z,4.00
2019-03-27T16:13:37.485Z,4.30
2019-03-27T16:15:58.098Z,4.37
2019-03-27T16:18:18.707Z,4.33
2019-03-27T16:20:39.333Z,4.97
2019-03-27T16:23:00.203Z,4.10
2019-03-27T16:25:20.785Z,4.22
2019-03-27T16:27:41.261Z,4.33
2019-03-27T16:30:01.843Z,4.33
2019-03-27T16:32:22.725Z,4.22
2019-03-27T16:34:44.250Z,4.53
2019-03-27T16:37:04.821Z,4.67
2019-03-27T16:39:25.553Z,4.15
2019-03-27T16:41:46.142Z,4.40
2019-03-27T16:44:07.795Z,4.25
2019-03-27T16:46:28.540Z,4.47
2019-03-27T16:48:50.688Z,4.67
2019-03-27T16:51:11.364Z,5.10
2019-03-27T16:53:31.825Z,4.62
2019-03-27T16:55:52.405Z,4.42
2019-03-27T16:58:13.023Z,4.90
2019-03-27T17:00:33.616Z,4.20
2019-03-27T17:02:54.269Z,4.67
2019-03-27T17:05:15.921Z,5.33
2019-03-27T17:07:36.799Z,4.72
2019-03-27T17:09:57.501Z,4.70
2019-03-27T17:12:18.127Z,4.47
2019-03-27T17:14:38.654Z,4.60
2019-03-27T17:16:59.374Z,4.70
2019-03-27T17:19:20.094Z,4.75
2019-03-27T17:21:43.177Z,4.53
2019-03-27T17:24:03.601Z,4.37
2019-03-27T17:26:24.188Z,4.10
2019-03-27T17:28:44.776Z,4.40
2019-03-27T17:31:05.450Z,4.90
2019-03-27T17:33:26.046Z,4.12
2019-03-27T17:35:46.614Z,4.50
2019-03-27T17:38:07.248Z,4.70
2019-03-27T17:40:28.041Z,4.78
2019-03-27T17:42:48.602Z,4.28
2019-03-27T17:45:09.221Z,4.33
2019-03-27T17:47:29.820Z,4.12
2019-03-27T17:49:50.332Z,4.70
2019-03-27T17:52:10.978Z,4.20
2019-03-27T17:54:31.616Z,4.45
2019-03-27T17:56:52.242Z,4.25
2019-03-27T17:59:12.788Z,4.08
2019-03-27T18:01:33.736Z,4.65
2019-03-27T18:03:54.359Z,4.25
2019-03-27T18:06:15.193Z,4.65
2019-03-27T18:08:35.800Z,4.20
2019-03-27T18:10:56.453Z,4.55
2019-03-27T18:13:17.090Z,4.33
2019-03-27T18:15:37.658Z,4.33
2019-03-27T18:17:58.199Z,4.85
2019-03-27T18:20:18.793Z,4.78
2019-03-27T18:22:51.844Z,5.90
2019-03-27T18:25:12.168Z,5.58
2019-03-27T18:27:32.786Z,5.72
2019-03-27T18:29:53.342Z,6.35
2019-03-27T18:32:13.986Z,7.37
2019-03-27T18:34:34.587Z,6.80
2019-03-27T18:36:55.361Z,7.37
2019-03-27T18:39:15.891Z,7.33
2019-03-27T18:41:36.533Z,7.03
2019-03-27T18:43:57.167Z,6.90
2019-03-27T18:46:17.816Z,7.83
2019-03-27T18:48:38.460Z,8.38
2019-03-27T18:50:59.343Z,7.60
2019-03-27T18:53:19.959Z,7.20
2019-03-27T18:55:41.391Z,5.92
2019-03-27T18:58:02.308Z,6.97
2019-03-27T19:00:23.242Z,7.97
2019-03-27T19:02:43.949Z,7.65
2019-03-27T19:05:07.137Z,7.60
2019-03-27T19:07:27.195Z,5.83
2019-03-27T19:09:47.840Z,6.22
2019-03-27T19:12:08.460Z,5.97
2019-03-27T19:14:29.290Z,5.62
2019-03-27T19:16:49.993Z,5.97
2019-03-27T19:19:10.587Z,8.13
2019-03-27T19:21:31.194Z,8.93
2019-03-27T19:23:51.928Z,9.35
2019-03-27T19:26:12.638Z,8.70
2019-03-27T19:28:33.240Z,9.03
2019-03-27T19:30:53.886Z,11.75
2019-03-27T19:33:14.718Z,11.85
2019-03-27T19:35:35.495Z,10.50
2019-03-27T19:37:56.404Z,9.55
2019-03-27T19:40:17.008Z,9.15
2019-03-27T19:42:37.722Z,9.65
2019-03-27T19:44:58.368Z,10.32
2019-03-27T19:47:19.118Z,9.95
2019-03-27T19:49:39.806Z,9.53
2019-03-27T19:52:00.436Z,8.83
2019-03-27T19:54:27.432Z,10.05
2019-03-27T19:56:44.358Z,13.48
2019-03-27T19:59:05.051Z,11.30
2019-03-27T20:01:25.828Z,9.85
2019-03-27T20:03:46.434Z,9.10
2019-03-27T20:06:07.237Z,8.10
2019-03-27T20:08:27.786Z,9.08
2019-03-27T20:10:48.584Z,9.53
2019-03-27T20:13:09.162Z,10.10
2019-03-27T20:15:29.813Z,10.35
2019-03-27T20:17:50.515Z,8.35
2019-03-27T20:20:11.288Z,8.78
2019-03-27T20:22:32.185Z,6.92
2019-03-27T20:24:52.885Z,8.35
2019-03-27T20:27:15.284Z,9.10
2019-03-27T20:29:35.967Z,10.55
2019-03-27T20:31:56.631Z,10.08
2019-03-27T20:34:17.583Z,9.80
2019-03-27T20:36:38.882Z,10.23
2019-03-27T20:39:00.418Z,9.23
2019-03-27T20:41:22.526Z,10.38
2019-03-27T20:43:43.186Z,10.08
2019-03-27T20:46:03.878Z,10.05
2019-03-27T20:48:24.495Z,8.93
2019-03-27T20:50:45.109Z,7.10
2019-03-27T20:53:06.021Z,7.33
2019-03-27T20:55:30.508Z,7.10
2019-03-27T20:57:48.260Z,6.87
2019-03-27T21:00:10.457Z,9.50
2019-03-27T21:02:31.298Z,6.95
2019-03-27T21:04:51.969Z,7.55
2019-03-27T21:07:12.778Z,7.62
2019-03-27T21:09:33.566Z,7.45
2019-03-27T21:11:56.099Z,7.60
2019-03-27T21:14:15.947Z,6.10
2019-03-27T21:16:36.536Z,7.28
2019-03-27T21:18:57.245Z,6.75
2019-03-27T21:21:17.829Z,7.28
2019-03-27T21:23:38.364Z,7.08
2019-03-27T21:25:58.652Z,7.17
2019-03-27T21:28:19.274Z,7.03
2019-03-27T21:30:39.996Z,6.60
2019-03-27T21:33:00.566Z,7.03
2019-03-27T21:35:21.240Z,6.53
2019-03-27T21:37:41.925Z,6.92
2019-03-27T21:40:02.740Z,6.75
2019-03-27T21:42:23.493Z,5.83
2019-03-27T21:44:44.109Z,6.60
2019-03-27T21:47:04.781Z,5.72
2019-03-27T21:49:25.450Z,6.58
2019-03-27T21:51:46.080Z,6.50
2019-03-27T21:54:06.949Z,6.85
2019-03-27T21:56:27.439Z,5.90
2019-03-27T21:58:48.119Z,6.67
2019-03-27T22:01:08.824Z,7.05
2019-03-27T22:03:29.494Z,6.60
2019-03-27T22:05:50.220Z,7.20
2019-03-27T22:08:11.142Z,7.15
2019-03-27T22:10:31.794Z,6.83
2019-03-27T22:12:52.357Z,7.28
2019-03-27T22:15:13.159Z,7.05
2019-03-27T22:17:33.856Z,6.55
2019-03-27T22:19:54.490Z,6.42
2019-03-27T22:22:15.139Z,6.50
2019-03-27T22:24:35.743Z,6.70
2019-03-27T22:26:56.507Z,5.97
2019-03-27T22:29:17.082Z,6.17
2019-03-27T22:31:37.695Z,6.30
2019-03-27T22:33:58.608Z,6.25
2019-03-27T22:36:19.195Z,6.00
2019-03-27T22:38:39.807Z,6.58
2019-03-27T22:41:00.395Z,6.58
2019-03-27T22:43:20.979Z,6.90
2019-03-27T22:45:41.600Z,6.75
2019-03-27T22:48:02.286Z,6.97
2019-03-27T22:50:22.927Z,8.15
2019-03-27T22:52:43.521Z,7.90
2019-03-27T22:55:06.312Z,7.80
2019-03-27T22:57:26.599Z,7.00
2019-03-27T22:59:47.183Z,7.10
2019-03-27T23:02:08.184Z,6.62
2019-03-27T23:04:29.142Z,7.65
2019-03-27T23:06:50.125Z,7.65
2019-03-27T23:09:10.922Z,7.33
2019-03-27T23:11:31.831Z,7.85
2019-03-27T23:13:52.732Z,7.67
2019-03-27T23:16:13.674Z,7.67
2019-03-27T23:18:34.545Z,7.78
2019-03-27T23:20:55.551Z,7.12
2019-03-27T23:23:16.461Z,7.03
2019-03-27T23:25:37.433Z,6.85
2019-03-27T23:27:58.423Z,6.85
2019-03-27T23:30:50.984Z,7.28
2019-03-27T23:33:11.609Z,6.72
2019-03-27T23:35:32.244Z,7.53
2019-03-27T23:37:52.861Z,7.42
2019-03-27T23:40:13.697Z,7.90
2019-03-27T23:42:34.360Z,7.72
2019-03-27T23:44:55.487Z,7.53
2019-03-27T23:47:16.063Z,8.23
2019-03-27T23:49:36.573Z,7.75
2019-03-27T23:51:57.079Z,7.05
2019-03-27T23:54:17.681Z,8.03
2019-03-27T23:56:38.264Z,7.28
2019-03-27T23:58:58.761Z,8.60
